PINE FLAT DAM (PNF)

Elevation: 970' · KINGS R basin · Operator: US Army Corps of Engineers

Provisional data, subject to change.
Query executed Sunday at 13:59:45   clock

Select a sensor type for a plot of data.
Note: Reservoir Flows are daily averages.

Earlier

Date RES ELE    STORAGE    RES CHG    TOC STO    ABV TOC    OUTFLOW    INFLOW    FNF    PPT INC    PPTINC4    TEMP MN    TEMP MX    WINDLEN    EVP PAN   
 FEET   AF   AF   AF   AF   CFS   CFS   CFS   INCHES   INCHES   DEG F   DEG F   MILES   INCHES  
12/26/2014 728.05 128984 484 525000 -396016 153 297 294 0.00 0.00 -- -- 29 0.04
12/27/2014 728.14 129164 -- 525000 -- 185 279 279 0.00 0.00 -- -- 39 0.05
12/28/2014 728.22 129324 -- 525000 -395676 183 267 259 0.00 0.00 -- -- 34 0.04
12/29/2014 728.28 129444 120 525000 -395556 180 244 262 0.00 0.00 -- -- 31 0.04
12/30/2014 728.38 129644 200 525000 r -395356 r 180 282 240 e 0.00 0.00 -- -- 29 0.02
12/31/2014 728.46 129804 160 525000 r -395196 r -- -- 220 e -- 0.00 -- -- -- --
01/01/2015 728.50 129884 80 525000 -395116 185 229 201 0.00 0.00 -- -- 34 0.05
01/02/2015 728.52 129924 40 525000 -395076 185 209 241 0.00 0.00 -- -- 33 0.04
01/03/2015 728.54 129965 41 525000 -395035 185 209 184 0.00 0.00 -- -- 39 0.05
01/04/2015 728.57 130025 60 525000 -394975 192 225 233 0.00 0.00 -- -- 36 0.04
01/05/2015 728.62 130125 100 525000 -394875 187 241 221 0.00 0.00 -- -- 40 0.05
01/06/2015 728.65 130185 60 525000 -394815 185 220 181 0.00 0.00 -- -- 36 0.06
01/07/2015 728.71 130306 121 525000 -394694 185 250 234 0.00 0.00 -- -- 38 0.06
01/08/2015 728.75 130386 80 525000 -394614 185 230 224 0.00 0.00 -- -- 37 0.06
01/09/2015 728.79 130467 81 525000 -394533 185 229 228 0.00 0.00 -- -- 32 0.05
01/10/2015 728.84 130567 100 525000 -394433 185 239 241 0.00 0.00 -- -- 30 0.05
01/11/2015 728.89 130668 101 525000 -394332 185 239 271 0.00 0.00 -- -- 28 0.04
01/12/2015 728.94 130768 100 525000 -394232 185 238 219 0.03 0.00 -- -- 24 0.03
01/13/2015 729.00 130889 121 -- -- 186 250 280 0.00 0.00 -- -- 29 0.04
01/14/2015 729.05 130990 101 -- -- 186 240 257 0.00 0.00 -- -- 34 0.06
01/15/2015 729.06 131010 20 -- -- 185 199 215 0.00 0.00 -- -- 41 0.06
01/16/2015 729.10 131090 80 -- -- 185 229 271 0.00 0.00 -- -- 51 0.05
01/17/2015 729.11 131111 21 525000 -- 185 199 196 0.00 0.00 -- -- 43 0.05
01/18/2015 729.15 131191 80 525000 -- 185 229 221 0.00 0.00 -- -- 47 0.05
01/19/2015 729.21 131312 121 525000 -- 185 249 210 0.00 0.00 -- -- 36 0.03
01/20/2015 729.23 131353 41 525000 -393647 197 219 202 0.00 0.00 -- -- 30 0.02
01/21/2015 729.24 131373 20 525000 -393627 199 211 223 0.00 0.00 -- -- 25 0.03
01/22/2015 729.26 131413 40 525000 -393587 196 219 215 0.00 0.00 -- -- 39 0.05
01/23/2015 729.26 131413 0 525000 -393587 196 198 194 0.00 0.00 -- -- 42 0.03
01/24/2015 729.26 131413 0 525000 -393587 -- -- -- -- 0.00 -- -- -- --
01/25/2015 -- -- -- -- -- -- -- -- -- 0.00 -- -- -- --

Later | Latest

Warning! This data is preliminary and subject to revision.

Show PNF Map | Plot PNF Data | 1 Month PNF Data | Real-Time PNF Data | PNF Info